createdAt,value
2023-02-01T00:02:13.628Z,1.30
2023-02-01T00:04:43.041Z,1.30
2023-02-01T00:07:14.046Z,1.30
2023-02-01T00:09:42.272Z,1.30
2023-02-01T00:12:10.545Z,1.30
2023-02-01T00:14:39.719Z,1.40
2023-02-01T00:17:08.326Z,1.35
2023-02-01T00:19:36.492Z,1.40
2023-02-01T00:22:05.937Z,1.39
2023-02-01T00:24:34.057Z,1.43
2023-02-01T00:27:02.157Z,1.40
2023-02-01T00:29:30.128Z,1.39
2023-02-01T00:31:58.366Z,1.34
2023-02-01T00:34:26.367Z,1.37
2023-02-01T00:36:54.395Z,1.36
2023-02-01T00:39:23.817Z,1.42
2023-02-01T00:41:51.764Z,1.35
2023-02-01T00:44:19.812Z,1.37
2023-02-01T00:46:47.834Z,1.41
2023-02-01T00:49:15.844Z,1.42
2023-02-01T00:51:43.757Z,1.36
2023-02-01T00:54:11.692Z,1.39
2023-02-01T00:56:41.437Z,1.35
2023-02-01T00:59:10.245Z,1.41
2023-02-01T01:01:38.217Z,1.36
2023-02-01T01:04:06.267Z,1.40
2023-02-01T01:06:35.256Z,1.31
2023-02-01T01:09:04.603Z,1.35
2023-02-01T01:11:34.467Z,1.37
2023-02-01T01:14:03.821Z,1.35
2023-02-01T01:16:33.520Z,1.34
2023-02-01T01:19:02.104Z,1.32
2023-02-01T01:21:30.236Z,1.39
2023-02-01T01:23:58.223Z,1.36
2023-02-01T01:26:27.097Z,1.35
2023-02-01T01:28:56.858Z,1.40
2023-02-01T01:31:26.742Z,1.42
2023-02-01T01:33:55.708Z,1.44
2023-02-01T01:36:24.473Z,1.43
2023-02-01T01:38:52.411Z,1.42
2023-02-01T01:41:21.329Z,1.46
2023-02-01T01:43:50.728Z,1.48
2023-02-01T01:46:19.892Z,1.48
2023-02-01T01:48:50.609Z,1.50
2023-02-01T01:51:20.352Z,1.44
2023-02-01T01:53:50.958Z,1.43
2023-02-01T01:56:19.545Z,1.36
2023-02-01T01:58:47.559Z,1.37
2023-02-01T02:01:15.610Z,1.35
2023-02-01T02:03:44.959Z,1.42
2023-02-01T02:06:19.477Z,1.48
2023-02-01T02:08:47.459Z,1.48
2023-02-01T02:11:17.507Z,1.50
2023-02-01T02:13:47.824Z,1.52
2023-02-01T02:32:20.398Z,1.47
2023-02-01T02:34:53.349Z,1.47
2023-02-01T02:37:29.235Z,1.42
2023-02-01T02:40:02.300Z,1.37
2023-02-01T02:42:55.038Z,1.36
2023-02-01T02:45:45.167Z,1.34
2023-02-01T02:48:15.702Z,1.39
2023-02-01T02:51:04.234Z,1.40
2023-02-01T02:53:52.291Z,1.36
2023-02-01T02:56:38.586Z,1.35
2023-02-01T02:59:25.480Z,1.44
2023-02-01T03:02:11.109Z,1.45
2023-02-01T03:04:39.134Z,1.40
2023-02-01T03:07:17.159Z,1.42
2023-02-01T03:09:47.574Z,1.43
2023-02-01T03:12:49.884Z,1.48
2023-02-01T03:15:18.114Z,1.37
2023-02-01T03:17:47.888Z,1.44
2023-02-01T03:20:17.066Z,1.41
2023-02-01T03:22:48.771Z,1.44
2023-02-01T03:25:22.287Z,1.48
2023-02-01T03:27:54.294Z,1.54
2023-02-01T03:30:23.745Z,1.52
2023-02-01T03:33:01.007Z,1.52
2023-02-01T03:35:31.548Z,1.54
2023-02-01T03:38:04.313Z,1.50
2023-02-01T03:40:35.386Z,1.51
2023-02-01T03:43:06.163Z,1.55
2023-02-01T03:45:37.954Z,1.61
2023-02-01T03:48:07.136Z,1.55
2023-02-01T03:50:37.399Z,1.52
2023-02-01T03:53:09.462Z,1.46
2023-02-01T03:55:38.205Z,1.50
2023-02-01T03:58:08.820Z,1.55
2023-02-01T04:00:36.961Z,1.37
2023-02-01T04:03:05.840Z,1.52
2023-02-01T04:05:33.950Z,1.58
2023-02-01T04:08:02.121Z,1.65
2023-02-01T04:10:31.600Z,1.68
2023-02-01T04:12:59.580Z,1.71
2023-02-01T04:15:27.523Z,1.72
2023-02-01T04:17:55.594Z,1.72
2023-02-01T04:20:23.888Z,1.60
2023-02-01T04:22:52.519Z,1.58
2023-02-01T04:25:20.618Z,1.61
2023-02-01T04:27:50.196Z,1.61
2023-02-01T04:30:18.783Z,1.69
2023-02-01T04:32:46.882Z,1.64
2023-02-01T04:35:14.983Z,1.66
2023-02-01T04:37:43.226Z,1.68
2023-02-01T04:40:12.022Z,1.55
2023-02-01T04:42:40.999Z,1.63
2023-02-01T04:45:11.204Z,1.65
2023-02-01T04:47:39.304Z,1.66
2023-02-01T04:50:08.938Z,1.71
2023-02-01T04:52:37.089Z,1.66
2023-02-01T04:55:05.468Z,1.56
2023-02-01T04:57:33.759Z,1.60
2023-02-01T05:00:01.735Z,1.62
2023-02-01T05:02:33.513Z,1.62
2023-02-01T05:05:01.681Z,1.62
2023-02-01T05:07:31.167Z,1.63
2023-02-01T05:09:59.332Z,1.65
2023-02-01T05:12:44.549Z,1.65
2023-02-01T05:15:12.700Z,1.65
2023-02-01T05:17:42.335Z,1.67
2023-02-01T05:20:11.318Z,1.66
2023-02-01T05:22:39.366Z,1.68
2023-02-01T05:25:08.531Z,1.62
2023-02-01T05:27:36.787Z,1.65
2023-02-01T05:30:05.327Z,1.62
2023-02-01T05:32:33.482Z,1.64
2023-02-01T05:35:03.166Z,1.65
2023-02-01T05:37:31.572Z,1.68
2023-02-01T05:39:59.635Z,1.60
2023-02-01T05:42:27.852Z,1.65
2023-02-01T05:44:56.030Z,1.63
2023-02-01T05:47:24.006Z,1.61
2023-02-01T05:49:52.231Z,1.66
2023-02-01T05:52:21.980Z,1.65
2023-02-01T05:54:50.129Z,1.66
2023-02-01T05:57:18.305Z,1.70
2023-02-01T05:59:46.943Z,1.66
2023-02-01T06:02:14.872Z,1.63
2023-02-01T06:04:42.993Z,1.62
2023-02-01T06:07:11.708Z,1.54
2023-02-01T06:09:41.288Z,1.56
2023-02-01T06:12:09.643Z,1.53
2023-02-01T06:14:38.293Z,1.58
2023-02-01T06:17:06.809Z,1.61
2023-02-01T06:19:35.021Z,1.66
2023-02-01T06:22:03.223Z,1.69
2023-02-01T06:24:31.332Z,1.68
2023-02-01T06:27:00.842Z,1.69
2023-02-01T06:29:28.940Z,1.67
2023-02-01T06:31:57.014Z,1.72
2023-02-01T06:34:25.471Z,1.69
2023-02-01T06:40:01.382Z,1.58
2023-02-01T06:42:31.078Z,1.66
2023-02-01T06:44:59.108Z,1.67
2023-02-01T06:47:27.272Z,1.70
2023-02-01T06:49:55.237Z,1.76
2023-02-01T06:52:23.322Z,1.74
2023-02-01T06:54:51.330Z,1.77
2023-02-01T06:57:19.437Z,1.77
2023-02-01T06:59:48.896Z,1.82
2023-02-01T07:02:17.165Z,1.86
2023-02-01T07:04:45.171Z,1.77
2023-02-01T07:07:14.075Z,1.81
2023-02-01T07:09:42.209Z,1.88
2023-02-01T07:12:10.299Z,1.93
2023-02-01T07:14:38.338Z,1.90
2023-02-01T07:17:08.266Z,1.90
2023-02-01T07:19:37.112Z,1.80
2023-02-01T07:22:05.134Z,1.89
2023-02-01T07:24:33.317Z,1.93
2023-02-01T07:27:01.475Z,1.96
2023-02-01T07:29:29.399Z,1.89
2023-02-01T07:31:57.562Z,1.94
2023-02-01T07:34:27.113Z,1.94
2023-02-01T07:36:55.103Z,1.95
2023-02-01T07:39:23.365Z,1.90
2023-02-01T07:41:51.567Z,2.00
2023-02-01T07:44:23.751Z,1.87
2023-02-01T07:46:51.827Z,1.92
2023-02-01T07:49:19.939Z,1.91
2023-02-01T07:51:49.257Z,2.01
2023-02-01T07:54:17.479Z,2.10
2023-02-01T07:56:45.566Z,2.10
2023-02-01T07:59:13.548Z,2.12
2023-02-01T08:01:40.508Z,2.13
2023-02-01T08:04:08.923Z,2.17
2023-02-01T08:06:37.056Z,2.20
2023-02-01T08:09:07.189Z,2.26
2023-02-01T08:11:35.319Z,2.18
2023-02-01T08:14:03.351Z,2.17
2023-02-01T08:16:31.302Z,2.18
2023-02-01T08:18:59.585Z,2.19
2023-02-01T08:21:37.509Z,2.29
2023-02-01T08:24:08.341Z,2.35
2023-02-01T08:26:36.520Z,2.38
2023-02-01T08:29:05.653Z,2.42
2023-02-01T08:31:33.774Z,2.43
2023-02-01T08:34:05.372Z,2.59
2023-02-01T08:36:33.923Z,2.68
2023-02-01T08:39:01.966Z,2.80
2023-02-01T08:41:32.198Z,2.88
2023-02-01T08:44:00.498Z,2.97
2023-02-01T08:46:28.819Z,2.94
2023-02-01T08:48:56.875Z,2.85
2023-02-01T08:51:25.331Z,2.83
2023-02-01T08:53:53.617Z,2.79
2023-02-01T08:56:22.467Z,2.81
2023-02-01T08:58:52.004Z,2.88
2023-02-01T09:01:20.350Z,2.98
2023-02-01T09:03:48.700Z,3.07
2023-02-01T09:06:17.636Z,3.08
2023-02-01T09:08:46.105Z,2.82
2023-02-01T09:11:15.538Z,2.80
2023-02-01T09:13:44.021Z,2.89
2023-02-01T09:16:13.647Z,2.96
2023-02-01T09:18:50.830Z,3.03
2023-02-01T09:21:24.414Z,3.11
2023-02-01T09:23:53.102Z,3.15
2023-02-01T09:26:26.432Z,3.13
2023-02-01T09:28:58.603Z,3.22
2023-02-01T09:31:28.395Z,3.07
2023-02-01T09:33:56.448Z,3.00
2023-02-01T09:36:25.172Z,2.96
2023-02-01T09:38:54.008Z,2.86
2023-02-01T09:41:28.719Z,2.78
2023-02-01T09:50:04.969Z,2.69
2023-02-01T09:52:37.312Z,2.52
2023-02-01T09:55:06.955Z,2.37
2023-02-01T09:57:42.831Z,2.42
2023-02-01T10:00:16.647Z,2.44
2023-02-01T10:02:45.405Z,2.51
2023-02-01T10:05:17.614Z,2.42
2023-02-01T10:07:49.576Z,2.48
2023-02-01T10:10:19.751Z,2.54
2023-02-01T10:13:08.989Z,2.64
2023-02-01T10:15:45.379Z,2.65
2023-02-01T10:18:23.085Z,2.63
2023-02-01T10:20:58.315Z,2.58
2023-02-01T10:23:44.340Z,2.53
2023-02-01T10:26:19.848Z,2.42
2023-02-01T10:28:50.823Z,2.29
2023-02-01T10:31:19.627Z,2.18
2023-02-01T10:33:50.084Z,1.99
2023-02-01T10:36:24.170Z,1.91
2023-02-01T10:38:52.508Z,1.93
2023-02-01T10:41:22.202Z,2.01
2023-02-01T10:43:52.372Z,2.08
2023-02-01T10:46:20.383Z,2.20
2023-02-01T10:48:49.726Z,2.32
2023-02-01T10:51:22.515Z,2.37
2023-02-01T10:53:53.256Z,2.56
2023-02-01T10:56:25.062Z,2.64
2023-02-01T10:58:54.257Z,2.65
2023-02-01T11:01:26.237Z,2.59
2023-02-01T11:03:56.206Z,2.53
2023-02-01T11:06:29.426Z,2.52
2023-02-01T11:08:59.768Z,2.50
2023-02-01T11:11:28.047Z,2.48
2023-02-01T11:13:57.298Z,2.41
2023-02-01T11:16:31.276Z,2.49
2023-02-01T11:19:00.602Z,2.44
2023-02-01T11:21:29.380Z,2.49
2023-02-01T11:24:03.098Z,2.49
2023-02-01T11:26:33.760Z,2.41
2023-02-01T11:29:03.808Z,2.31
2023-02-01T11:31:32.459Z,2.20
2023-02-01T11:34:01.834Z,2.14
2023-02-01T11:36:31.953Z,2.10
2023-02-01T11:39:14.973Z,2.14
2023-02-01T11:41:45.560Z,2.17
2023-02-01T11:44:23.112Z,2.14
2023-02-01T11:46:51.447Z,2.11
2023-02-01T11:49:23.649Z,2.04
2023-02-01T11:52:02.011Z,2.07
2023-02-01T11:54:44.367Z,2.02
2023-02-01T11:57:20.324Z,1.81
2023-02-01T12:00:02.716Z,1.90
2023-02-01T12:02:54.816Z,1.90
2023-02-01T12:05:34.214Z,1.83
2023-02-01T12:08:17.278Z,1.85
2023-02-01T12:10:52.747Z,1.80
2023-02-01T12:13:28.176Z,1.73
2023-02-01T12:16:02.498Z,1.66
2023-02-01T12:18:45.566Z,1.64
2023-02-01T12:21:22.714Z,1.62
2023-02-01T12:24:02.973Z,1.73
2023-02-01T12:26:47.345Z,1.82
2023-02-01T12:29:32.368Z,1.82
2023-02-01T12:32:09.691Z,1.85
2023-02-01T12:34:44.482Z,1.86
2023-02-01T12:37:18.347Z,1.79
2023-02-01T12:39:51.084Z,1.65
2023-02-01T12:42:21.706Z,1.59
2023-02-01T12:44:55.464Z,1.60
2023-02-01T12:53:10.273Z,1.58
2023-02-01T12:55:41.499Z,1.69
2023-02-01T12:58:14.111Z,1.65
2023-02-01T13:00:46.076Z,1.62
2023-02-01T13:03:17.907Z,1.68
2023-02-01T13:05:51.027Z,1.62
2023-02-01T13:08:22.503Z,1.64
2023-02-01T13:10:53.654Z,1.64
2023-02-01T13:13:25.290Z,1.43
2023-02-01T13:15:59.474Z,1.55
2023-02-01T13:18:34.916Z,1.58
2023-02-01T13:21:06.239Z,1.55
2023-02-01T13:23:36.662Z,1.59
2023-02-01T13:26:04.816Z,1.63
2023-02-01T13:28:37.357Z,1.55
2023-02-01T13:31:19.670Z,1.52
2023-02-01T13:33:57.306Z,1.54
2023-02-01T13:36:36.947Z,1.51
2023-02-01T13:39:22.855Z,1.47
2023-02-01T13:41:55.951Z,1.44
2023-02-01T13:44:28.693Z,1.42
2023-02-01T13:46:59.730Z,1.36
2023-02-01T13:49:28.807Z,1.27
2023-02-01T13:51:58.252Z,1.30
2023-02-01T13:54:28.345Z,1.15
2023-02-01T13:57:00.144Z,1.41
2023-02-01T14:00:01.333Z,1.40
2023-02-01T14:03:03.856Z,1.42
2023-02-01T14:05:49.664Z,1.43
2023-02-01T14:08:24.128Z,1.45
2023-02-01T14:10:53.899Z,1.47
2023-02-01T14:13:26.756Z,1.49
2023-02-01T14:16:12.551Z,1.46
2023-02-01T14:19:01.218Z,1.32
2023-02-01T14:21:32.163Z,1.39
2023-02-01T14:24:02.031Z,1.34
2023-02-01T14:26:43.865Z,1.39
2023-02-01T14:29:28.092Z,1.39
2023-02-01T14:32:03.849Z,1.37
2023-02-01T14:34:53.611Z,1.25
2023-02-01T14:37:34.263Z,1.39
2023-02-01T14:40:06.426Z,1.40
2023-02-01T14:42:40.549Z,1.42
2023-02-01T14:45:28.841Z,1.36
2023-02-01T14:47:57.601Z,1.29
2023-02-01T14:50:29.613Z,1.25
2023-02-01T14:53:06.761Z,1.34
2023-02-01T14:55:37.791Z,1.35
2023-02-01T14:58:07.999Z,1.39
2023-02-01T15:00:36.213Z,1.36
2023-02-01T15:03:19.361Z,1.35
2023-02-01T15:05:48.555Z,1.32
2023-02-01T15:08:20.635Z,1.30
2023-02-01T15:10:50.891Z,1.32
2023-02-01T15:13:23.274Z,1.32
2023-02-01T15:16:05.224Z,1.38
2023-02-01T15:18:33.537Z,1.35
2023-02-01T15:21:09.944Z,1.29
2023-02-01T15:23:52.262Z,1.28
2023-02-01T15:26:30.064Z,1.21
2023-02-01T15:28:59.003Z,1.18
2023-02-01T15:31:38.539Z,1.17
2023-02-01T15:34:06.850Z,1.09
2023-02-01T15:36:34.958Z,1.19
2023-02-01T15:39:21.027Z,1.17
2023-02-01T15:41:50.514Z,1.19
2023-02-01T15:44:21.426Z,1.14
2023-02-01T15:46:51.211Z,1.02
2023-02-01T15:52:16.275Z,1.07
2023-02-01T15:54:49.973Z,1.05
2023-02-01T15:57:22.564Z,1.05
2023-02-01T15:59:52.082Z,1.03
2023-02-01T16:02:27.957Z,1.08
2023-02-01T16:04:56.553Z,1.05
2023-02-01T16:07:28.122Z,1.12
2023-02-01T16:09:59.279Z,1.03
2023-02-01T16:12:34.640Z,0.99
2023-02-01T16:15:02.700Z,0.90
2023-02-01T16:17:31.243Z,0.92
2023-02-01T16:19:59.590Z,0.90
2023-02-01T16:22:27.657Z,0.93
2023-02-01T16:24:55.779Z,0.94
2023-02-01T16:27:25.175Z,0.91
2023-02-01T16:29:56.897Z,0.95
2023-02-01T16:32:24.986Z,0.88
2023-02-01T16:34:54.697Z,0.85
2023-02-01T16:37:24.513Z,0.80
2023-02-01T16:39:52.497Z,0.83
2023-02-01T16:42:20.477Z,0.82
2023-02-01T16:44:49.848Z,0.98
2023-02-01T16:47:20.464Z,1.08
2023-02-01T16:49:49.998Z,1.15
2023-02-01T16:52:19.539Z,1.14
2023-02-01T16:54:48.174Z,1.08
2023-02-01T16:57:16.898Z,1.11
2023-02-01T16:59:45.969Z,1.18
2023-02-01T17:02:16.209Z,1.15
2023-02-01T17:04:44.457Z,1.17
2023-02-01T17:07:14.368Z,1.12
2023-02-01T17:09:42.374Z,1.13
2023-02-01T17:12:18.525Z,1.13
2023-02-01T17:14:46.813Z,1.08
2023-02-01T17:17:18.555Z,1.17
2023-02-01T17:19:47.572Z,1.14
2023-02-01T17:22:16.159Z,1.20
2023-02-01T17:24:49.017Z,1.20
2023-02-01T17:27:17.158Z,1.16
2023-02-01T17:29:47.199Z,1.14
2023-02-01T17:32:19.401Z,1.17
2023-02-01T17:34:47.623Z,1.17
2023-02-01T17:37:20.493Z,1.18
2023-02-01T17:40:05.560Z,1.19
2023-02-01T17:42:33.668Z,1.17
2023-02-01T17:45:04.122Z,1.19
2023-02-01T17:47:34.171Z,1.18
2023-02-01T17:50:02.197Z,1.27
2023-02-01T17:52:31.506Z,1.21
2023-02-01T17:54:59.791Z,1.25
2023-02-01T17:57:27.651Z,1.26
2023-02-01T17:59:55.971Z,1.23
2023-02-01T18:02:25.456Z,1.21
2023-02-01T18:04:55.872Z,1.20
2023-02-01T18:07:23.907Z,1.09
2023-02-01T18:09:51.891Z,1.03
2023-02-01T18:12:21.477Z,0.91
2023-02-01T18:14:49.803Z,0.87
2023-02-01T18:17:17.844Z,0.90
2023-02-01T18:19:46.098Z,0.84
2023-02-01T18:22:19.068Z,0.84
2023-02-01T18:24:47.085Z,0.79
2023-02-01T18:27:15.091Z,0.84
2023-02-01T18:29:43.059Z,0.86
2023-02-01T18:32:11.827Z,0.90
2023-02-01T18:34:41.131Z,0.94
2023-02-01T18:37:09.432Z,0.99
2023-02-01T18:39:39.624Z,0.91
2023-02-01T18:42:07.741Z,0.92
2023-02-01T18:44:35.757Z,0.87
2023-02-01T18:47:03.940Z,0.88
2023-02-01T18:49:31.915Z,0.81
2023-02-01T18:52:00.381Z,0.81
2023-02-01T18:54:28.711Z,0.87
2023-02-01T18:56:58.030Z,0.82
2023-02-01T18:59:26.265Z,0.82
2023-02-01T19:01:54.347Z,0.78
2023-02-01T19:04:25.764Z,0.71
2023-02-01T19:06:55.631Z,0.70
2023-02-01T19:09:23.657Z,0.71
2023-02-01T19:11:51.683Z,0.70
2023-02-01T19:14:21.114Z,0.71
2023-02-01T19:16:49.079Z,0.66
2023-02-01T19:19:17.016Z,0.65
2023-02-01T19:21:44.998Z,0.64
2023-02-01T19:24:12.935Z,0.57
2023-02-01T19:26:42.668Z,0.54
2023-02-01T19:29:10.939Z,0.59
2023-02-01T19:31:40.516Z,0.57
2023-02-01T19:34:08.818Z,0.51
2023-02-01T19:36:40.969Z,0.55
2023-02-01T19:39:10.776Z,0.56
2023-02-01T19:41:38.956Z,0.45
2023-02-01T19:44:07.048Z,0.51
2023-02-01T19:46:35.265Z,0.54
2023-02-01T19:49:04.791Z,0.51
2023-02-01T19:51:32.884Z,0.54
2023-02-01T19:54:01.022Z,0.52
2023-02-01T19:56:29.094Z,0.47
2023-02-01T19:58:57.356Z,0.44
2023-02-01T20:01:25.588Z,0.42
2023-02-01T20:03:53.845Z,0.40
2023-02-01T20:06:23.472Z,0.42
2023-02-01T20:08:51.527Z,0.44
2023-02-01T20:11:19.633Z,0.43
2023-02-01T20:13:47.672Z,0.30
2023-02-01T20:16:15.746Z,0.36
2023-02-01T20:18:43.832Z,0.41
2023-02-01T20:21:12.460Z,0.49
2023-02-01T20:23:47.585Z,0.53
2023-02-01T20:26:16.565Z,0.53
2023-02-01T20:28:44.518Z,0.51
2023-02-01T20:31:12.428Z,0.42
2023-02-01T20:33:40.457Z,0.51
2023-02-01T20:36:08.936Z,0.52
2023-02-01T20:38:36.940Z,0.51
2023-02-01T20:41:07.190Z,0.51
2023-02-01T20:43:42.858Z,0.53
2023-02-01T20:46:10.944Z,0.50
2023-02-01T20:48:39.179Z,0.40
2023-02-01T20:51:07.300Z,0.42
2023-02-01T20:53:35.288Z,0.41
2023-02-01T20:56:05.538Z,0.35
2023-02-01T20:58:35.329Z,0.33
2023-02-01T21:01:03.356Z,0.38
2023-02-01T21:03:31.406Z,0.39
2023-02-01T21:06:00.730Z,0.41
2023-02-01T21:08:29.328Z,0.39
2023-02-01T21:10:57.754Z,0.40
2023-02-01T21:13:26.136Z,0.42
2023-02-01T21:15:55.531Z,0.41
2023-02-01T21:18:23.757Z,0.39
2023-02-01T21:20:51.894Z,0.43
2023-02-01T21:23:20.230Z,0.35
2023-02-01T21:25:48.168Z,0.34
2023-02-01T21:28:16.189Z,0.43
2023-02-01T21:30:44.374Z,0.37
2023-02-01T21:33:13.939Z,0.38
2023-02-01T21:35:42.683Z,0.39
2023-02-01T21:38:10.947Z,0.40
2023-02-01T21:40:39.104Z,0.43
2023-02-01T21:43:07.091Z,0.39
2023-02-01T21:45:36.988Z,0.37
2023-02-01T21:48:07.136Z,0.36
2023-02-01T21:50:36.550Z,0.36
2023-02-01T21:53:05.059Z,0.38
2023-02-01T21:55:33.083Z,0.30
2023-02-01T21:58:01.118Z,0.35
2023-02-01T22:06:25.322Z,0.49
2023-02-01T22:08:53.281Z,0.47
2023-02-01T22:11:21.700Z,0.47
2023-02-01T22:13:50.044Z,0.44
2023-02-01T22:16:18.424Z,0.41
2023-02-01T22:18:48.058Z,0.40
2023-02-01T22:21:16.243Z,0.37
2023-02-01T22:23:45.642Z,0.33
2023-02-01T22:26:14.384Z,0.39
2023-02-01T22:28:42.569Z,0.36
2023-02-01T22:31:11.085Z,0.38
2023-02-01T22:33:39.451Z,0.35
2023-02-01T22:36:08.045Z,0.30
2023-02-01T22:38:36.756Z,0.37
2023-02-01T22:41:06.966Z,0.40
2023-02-01T22:43:35.468Z,0.42
2023-02-01T22:46:04.234Z,-0.22
2023-02-01T22:48:32.732Z,0.45
2023-02-01T22:51:01.119Z,0.40
2023-02-01T22:53:29.718Z,0.43
2023-02-01T22:56:01.371Z,0.47
2023-02-01T22:58:31.016Z,0.46
2023-02-01T23:01:08.184Z,0.41
2023-02-01T23:03:36.529Z,0.46
2023-02-01T23:06:05.132Z,0.50
2023-02-01T23:08:35.474Z,0.42
2023-02-01T23:11:05.117Z,0.44
2023-02-01T23:13:35.309Z,0.42
2023-02-01T23:16:05.845Z,0.47
2023-02-01T23:18:33.843Z,0.43
2023-02-01T23:21:11.525Z,0.49
2023-02-01T23:23:39.647Z,0.49
2023-02-01T23:26:07.864Z,0.51
2023-02-01T23:28:37.339Z,0.53
2023-02-01T23:31:09.562Z,0.53
2023-02-01T23:33:38.282Z,0.54
2023-02-01T23:36:07.679Z,0.53
2023-02-01T23:38:35.978Z,0.49
2023-02-01T23:41:06.012Z,0.51
2023-02-01T23:43:56.781Z,0.48
2023-02-01T23:46:26.430Z,0.51
2023-02-01T23:48:54.742Z,0.50
2023-02-01T23:51:23.249Z,0.44
2023-02-01T23:53:51.495Z,0.41
2023-02-01T23:56:21.312Z,0.15
2023-02-01T23:58:49.387Z,-0.02
